Nearby METAR Reports

 

EGSS - Stansted Airport, United Kingdom
Distance from station: NW 15mi, 24km
Updated: 20/09/2018 22:50
Light rain, Thunderstorm
Light rain, Thunderstorm
 Wind from SSW
Wind: SSW 24 mph , 39 km/h, Gust: 36 mph , 57 km/h
Temperature: 19°C
Dew Point: 14°C
Humidity: 73%
Barometer: 1001 hPa
Summary: Light rain
Clouds: Thunderstorm
Visibility: 6 miles , 10 km
Cloud details: Mostly cloudy 762 m
2018/09/20 21:50 EGSS 202150Z AUTO 20021G31KT 9999 -RA BKN025/// //////TCU 19/14 Q1001
EGMC - Southend-On-Sea, United Kingdom
Distance from station: SE 15mi, 25km
Updated: 20/09/2018 22:50
Partly cloudy
Partly cloudy
 Wind from SSW
Wind: SSW 26 mph , 43 km/h
Temperature: 20°C
Dew Point: 13°C
Humidity: 64%
Barometer: 1002 hPa
Clouds: Partly cloudy
Visibility: 6 miles , 10 km
Cloud details: Few Clouds 1006 m
Partly cloudy 1311 m
2018/09/20 21:50 EGMC 202150Z 20023KT 9999 FEW033 SCT043 20/13 Q1002
 
EGLC - London City Airp, United Kingdom
Distance from station: SW 24mi, 39km
Updated: 20/09/2018 22:50
Mostly cloudy
Mostly cloudy
 Wind from SSW
Wind: SSW 22 mph , 35 km/h
Temperature: 21°C
Dew Point: 14°C
Humidity: 64%
Barometer: 1001 hPa
Clouds: Mostly cloudy
Visibility: 6 miles , 10 km
Cloud details: Partly cloudy 884 m
Mostly cloudy 1036 m
2018/09/20 21:50 EGLC 202150Z AUTO 21019KT 160V240 9999 SCT029 BKN034 21/14 Q1001
EGUW - Wattisham Raf, United Kingdom
Distance from station: NE 34mi, 54km
Updated: 20/09/2018 22:50
Mostly cloudy
Mostly cloudy
 Wind from SSW
Wind: SSW 22 mph , 35 km/h, Gust: 36 mph , 57 km/h
Temperature: 19°C
Dew Point: 14°C
Humidity: 73%
Barometer: 1001 hPa
Clouds: Mostly cloudy
Visibility: 6 miles , 10 km
Cloud details: Partly cloudy 914 m
Mostly cloudy 1219 m
2018/09/20 21:50 EGUW 202150Z 20019G31KT 9999 SCT030 BKN040 19/14 Q1001 BLU
 
EGGW - Luton Airport, United Kingdom
Distance from station: WNW 37mi, 59km
Updated: 20/09/2018 22:50
Light rain, Mostly cloudy
Light rain, Mostly cloudy
 Wind from SSW
Wind: SSW 18 mph , 30 km/h, Gust: 31 mph , 50 km/h
Temperature: 17°C
Dew Point: 15°C
Humidity: 88%
Barometer: 999 hPa
Summary: Light rain
Clouds: Mostly cloudy
Visibility: 6 miles , 10 km
Cloud details: Mostly cloudy 518 m
2018/09/20 21:50 EGGW 202150Z AUTO 20016G27KT 9999 -RA BKN017 17/15 Q0999
EGWU - Northolt Raf, United Kingdom
Distance from station: WSW 40mi, 64km
Updated: 20/09/2018 21:50
Mostly cloudy
Mostly cloudy
 Wind from SSW
Wind: SSW 16 mph , 26 km/h
Temperature: 19°C
Dew Point: 16°C
Humidity: 83%
Barometer: 1002 hPa
Clouds: Mostly cloudy
Visibility: 6 miles , 10 km
Cloud details: Mostly cloudy 610 m
Mostly cloudy 823 m
2018/09/20 20:50 EGWU 202050Z AUTO 21014KT 9999 // BKN020/// BKN027/// 19/16 Q1002